createdAt,value
2023-05-22T00:01:43.330Z,5.07
2023-05-22T00:04:30.189Z,5.93
2023-05-22T00:07:16.030Z,6.55
2023-05-22T00:10:02.221Z,6.05
2023-05-22T00:12:47.743Z,5.30
2023-05-22T00:15:34.014Z,6.25
2023-05-22T00:18:19.609Z,5.50
2023-05-22T00:21:05.337Z,5.72
2023-05-22T00:23:51.010Z,6.57
2023-05-22T00:26:37.272Z,5.57
2023-05-22T00:29:23.867Z,5.80
2023-05-22T00:32:10.147Z,6.75
2023-05-22T00:34:55.905Z,5.72
2023-05-22T00:37:41.971Z,6.68
2023-05-22T00:40:27.449Z,6.75
2023-05-22T00:43:13.401Z,6.80
2023-05-22T00:45:59.126Z,9.02
2023-05-22T00:48:46.342Z,7.65
2023-05-22T00:51:32.228Z,7.03
2023-05-22T00:54:18.084Z,8.07
2023-05-22T00:57:04.838Z,7.88
2023-05-22T00:59:51.263Z,7.07
2023-05-22T01:02:38.202Z,7.70
2023-05-22T01:05:25.639Z,7.47
2023-05-22T01:08:12.094Z,7.50
2023-05-22T01:11:03.603Z,7.22
2023-05-22T01:13:57.146Z,6.65
2023-05-22T01:16:54.794Z,7.18
2023-05-22T01:20:01.635Z,7.13
2023-05-22T01:23:03.747Z,7.13
2023-05-22T01:26:08.037Z,7.38
2023-05-22T01:29:04.820Z,7.40
2023-05-22T01:31:51.569Z,6.82
2023-05-22T01:34:38.567Z,7.35
2023-05-22T01:37:24.968Z,7.15
2023-05-22T01:40:12.340Z,7.00
2023-05-22T01:42:58.572Z,7.00
2023-05-22T01:45:44.821Z,7.05
2023-05-22T01:48:30.868Z,7.30
2023-05-22T01:51:54.103Z,7.85
2023-05-22T01:54:50.415Z,7.40
2023-05-22T01:58:27.397Z,6.50
2023-05-22T02:01:14.499Z,7.07
2023-05-22T02:04:01.761Z,6.63
2023-05-22T02:06:47.997Z,6.80
2023-05-22T02:09:35.114Z,6.85
2023-05-22T02:12:21.667Z,6.95
2023-05-22T02:15:08.616Z,7.13
2023-05-22T02:17:54.512Z,7.60
2023-05-22T02:20:41.376Z,8.25
2023-05-22T02:23:29.753Z,9.13
2023-05-22T02:26:15.927Z,10.20
2023-05-22T02:29:01.619Z,10.18
2023-05-22T02:31:47.586Z,10.38
2023-05-22T02:34:34.131Z,8.98
2023-05-22T02:37:20.842Z,8.95
2023-05-22T02:40:07.112Z,9.25
2023-05-22T02:42:53.295Z,8.55
2023-05-22T02:45:39.586Z,8.88
2023-05-22T02:48:25.614Z,8.73
2023-05-22T02:51:11.938Z,9.15
2023-05-22T02:53:58.509Z,10.57
2023-05-22T02:56:44.331Z,11.85
2023-05-22T02:59:30.128Z,12.23
2023-05-22T03:02:16.588Z,18.50
2023-05-22T03:05:02.968Z,11.38
2023-05-22T03:07:49.189Z,11.68
2023-05-22T03:10:34.810Z,10.70
2023-05-22T03:13:20.602Z,10.30
2023-05-22T03:16:07.035Z,9.93
2023-05-22T03:19:11.476Z,10.10
2023-05-22T03:21:58.160Z,10.02
2023-05-22T03:24:44.221Z,9.63
2023-05-22T03:27:30.202Z,8.90
2023-05-22T03:30:16.366Z,8.82
2023-05-22T03:33:11.741Z,8.85
2023-05-22T03:35:58.864Z,8.93
2023-05-22T03:38:45.332Z,8.18
2023-05-22T03:41:31.332Z,8.18
2023-05-22T03:44:17.860Z,7.18
2023-05-22T03:47:03.489Z,7.28
2023-05-22T03:49:50.464Z,7.00
2023-05-22T03:52:36.298Z,7.50
2023-05-22T03:55:23.006Z,7.32
2023-05-22T03:58:08.669Z,6.90
2023-05-22T04:01:01.060Z,7.05
2023-05-22T04:03:47.480Z,7.45
2023-05-22T04:06:34.258Z,6.47
2023-05-22T04:09:19.860Z,7.32
2023-05-22T04:12:07.163Z,6.07
2023-05-22T04:14:52.880Z,6.60
2023-05-22T04:17:40.385Z,6.25
2023-05-22T04:20:26.916Z,6.32
2023-05-22T04:23:13.407Z,6.22
2023-05-22T04:26:02.332Z,5.93
2023-05-22T04:28:48.350Z,5.60
2023-05-22T04:31:34.424Z,5.18
2023-05-22T04:34:21.865Z,6.82
2023-05-22T04:37:08.238Z,7.15
2023-05-22T04:39:58.289Z,6.80
2023-05-22T04:42:44.703Z,6.43
2023-05-22T04:45:30.962Z,6.20
2023-05-22T04:48:17.946Z,6.63
2023-05-22T04:51:04.730Z,8.05
2023-05-22T04:53:51.985Z,9.20
2023-05-22T04:59:27.163Z,32.88
2023-05-22T05:02:12.897Z,12.15
2023-05-22T05:04:58.623Z,6.97
2023-05-22T05:07:44.627Z,7.63
2023-05-22T05:10:30.748Z,7.00
2023-05-22T05:13:16.714Z,7.10
2023-05-22T05:16:04.325Z,8.50
2023-05-22T05:18:51.888Z,9.80
2023-05-22T05:21:38.974Z,7.55
2023-05-22T05:24:25.091Z,6.93
2023-05-22T05:27:11.400Z,6.88
2023-05-22T05:29:57.775Z,9.80
2023-05-22T05:32:49.056Z,9.45
2023-05-22T05:35:45.877Z,7.22
2023-05-22T05:38:32.931Z,7.00
2023-05-22T05:41:19.180Z,7.68
2023-05-22T05:44:09.049Z,7.30
2023-05-22T05:46:54.957Z,6.93
2023-05-22T05:49:40.790Z,7.22
2023-05-22T05:52:32.542Z,7.35
2023-05-22T05:55:20.493Z,6.32
2023-05-22T05:58:07.855Z,6.20
2023-05-22T06:01:00.917Z,7.28
2023-05-22T06:03:47.216Z,6.32
2023-05-22T06:06:39.549Z,5.85
2023-05-22T06:09:34.405Z,6.07
2023-05-22T06:12:29.021Z,5.57
2023-05-22T06:15:14.779Z,5.22
2023-05-22T06:18:02.583Z,5.07
2023-05-22T06:20:48.659Z,4.95
2023-05-22T06:23:34.103Z,4.85
2023-05-22T06:26:20.490Z,4.50
2023-05-22T06:29:07.264Z,5.28
2023-05-22T06:31:55.212Z,5.28
2023-05-22T06:34:41.144Z,5.07
2023-05-22T06:37:28.007Z,4.82
2023-05-22T06:40:14.578Z,4.40
2023-05-22T06:43:08.359Z,6.03
2023-05-22T06:46:07.067Z,4.32
2023-05-22T06:49:10.212Z,4.55
2023-05-22T06:52:05.122Z,4.60
2023-05-22T06:54:51.584Z,5.03
2023-05-22T06:57:37.634Z,4.82
2023-05-22T07:00:24.239Z,4.78
2023-05-22T07:03:27.946Z,4.13
2023-05-22T07:06:43.193Z,4.38
2023-05-22T07:09:29.422Z,3.92
2023-05-22T07:12:15.477Z,3.53
2023-05-22T07:15:01.769Z,3.70
2023-05-22T07:17:50.390Z,3.33
2023-05-22T07:20:37.895Z,3.70
2023-05-22T07:23:34.158Z,3.50
2023-05-22T07:26:20.071Z,6.22
2023-05-22T07:29:14.542Z,3.42
2023-05-22T07:32:00.788Z,5.50
2023-05-22T07:34:48.112Z,6.68
2023-05-22T07:37:33.728Z,6.18
2023-05-22T07:40:20.094Z,2.65
2023-05-22T07:43:06.744Z,3.15
2023-05-22T07:45:54.306Z,2.50
2023-05-22T07:48:43.872Z,2.80
2023-05-22T07:51:30.085Z,3.20
2023-05-22T07:54:16.308Z,3.00
2023-05-22T07:57:04.708Z,2.55
2023-05-22T07:59:55.725Z,2.47
2023-05-22T08:02:41.992Z,3.38
2023-05-22T08:05:28.036Z,2.70
2023-05-22T08:08:14.286Z,2.58
2023-05-22T08:11:04.288Z,2.78
2023-05-22T08:13:50.561Z,7.18
2023-05-22T08:16:36.411Z,2.28
2023-05-22T08:19:22.915Z,5.15
2023-05-22T08:22:08.991Z,7.78
2023-05-22T08:24:54.818Z,7.00
2023-05-22T08:27:40.413Z,2.22
2023-05-22T08:30:26.125Z,2.50
2023-05-22T08:33:12.335Z,2.22
2023-05-22T08:35:58.552Z,2.50
2023-05-22T08:38:44.128Z,4.32
2023-05-22T08:41:30.393Z,2.30
2023-05-22T08:44:16.819Z,4.15
2023-05-22T08:47:09.867Z,2.47
2023-05-22T08:49:58.157Z,5.55
2023-05-22T08:52:51.137Z,8.43
2023-05-22T08:55:36.991Z,2.75
2023-05-22T08:58:23.305Z,2.35
2023-05-22T09:01:09.151Z,2.13
2023-05-22T09:04:00.461Z,2.17
2023-05-22T09:06:49.740Z,2.63
2023-05-22T09:09:39.451Z,2.53
2023-05-22T09:12:27.151Z,2.33
2023-05-22T09:15:13.886Z,2.15
2023-05-22T09:18:00.413Z,2.25
2023-05-22T09:20:46.105Z,2.63
2023-05-22T09:23:32.142Z,2.17
2023-05-22T09:26:17.755Z,2.75
2023-05-22T09:29:05.309Z,2.45
2023-05-22T09:31:51.841Z,2.38
2023-05-22T09:34:37.886Z,2.22
2023-05-22T09:37:23.762Z,2.08
2023-05-22T09:40:12.036Z,2.47
2023-05-22T09:42:57.824Z,1.88
2023-05-22T09:45:43.798Z,2.20
2023-05-22T09:48:36.046Z,2.08
2023-05-22T09:51:23.912Z,2.20
2023-05-22T09:54:12.221Z,2.10
2023-05-22T09:56:59.352Z,2.80
2023-05-22T09:59:53.994Z,2.38
2023-05-22T10:02:42.865Z,2.22
2023-05-22T10:05:31.490Z,2.60
2023-05-22T10:08:26.319Z,2.20
2023-05-22T10:11:12.965Z,2.67
2023-05-22T10:14:00.798Z,2.05
2023-05-22T10:16:47.407Z,2.25
2023-05-22T10:19:33.754Z,2.10
2023-05-22T10:22:22.556Z,2.10
2023-05-22T10:25:10.783Z,2.10
2023-05-22T10:27:57.755Z,2.15
2023-05-22T10:31:12.053Z,2.03
2023-05-22T10:34:40.674Z,2.38
2023-05-22T10:37:41.412Z,2.00
2023-05-22T10:40:32.681Z,2.28
2023-05-22T10:43:18.494Z,1.92
2023-05-22T10:46:06.490Z,1.80
2023-05-22T10:48:54.675Z,1.92
2023-05-22T10:51:40.513Z,2.00
2023-05-22T10:54:59.805Z,1.90
2023-05-22T10:57:45.809Z,2.30
2023-05-22T11:00:31.712Z,1.92
2023-05-22T11:03:21.323Z,2.13
2023-05-22T11:06:07.891Z,2.30
2023-05-22T11:08:55.851Z,2.67
2023-05-22T11:11:41.772Z,1.90
2023-05-22T11:14:27.862Z,2.10
2023-05-22T11:17:14.494Z,2.30
2023-05-22T11:20:01.818Z,2.30
2023-05-22T11:22:55.989Z,2.10
2023-05-22T11:25:42.128Z,2.30
2023-05-22T11:28:28.002Z,2.40
2023-05-22T11:31:14.336Z,2.50
2023-05-22T11:34:00.423Z,2.47
2023-05-22T11:36:47.652Z,2.20
2023-05-22T11:39:33.337Z,2.00
2023-05-22T11:42:19.972Z,2.30
2023-05-22T11:45:06.035Z,2.17
2023-05-22T11:47:52.078Z,2.38
2023-05-22T11:50:42.391Z,2.60
2023-05-22T11:53:31.291Z,2.10
2023-05-22T11:56:20.274Z,2.15
2023-05-22T11:59:06.304Z,2.47
2023-05-22T12:01:52.190Z,2.08
2023-05-22T12:04:38.208Z,2.33
2023-05-22T12:07:25.949Z,2.20
2023-05-22T12:10:14.327Z,2.47
2023-05-22T12:13:00.295Z,2.17
2023-05-22T12:15:46.199Z,2.55
2023-05-22T12:18:37.675Z,2.30
2023-05-22T12:21:23.878Z,2.50
2023-05-22T12:24:10.098Z,2.50
2023-05-22T12:26:56.694Z,2.88
2023-05-22T12:29:42.996Z,2.53
2023-05-22T12:32:29.687Z,2.00
2023-05-22T12:35:16.920Z,2.22
2023-05-22T12:38:03.151Z,2.90
2023-05-22T12:40:49.868Z,2.05
2023-05-22T12:43:35.803Z,2.28
2023-05-22T12:46:22.385Z,2.10
2023-05-22T12:49:08.610Z,2.05
2023-05-22T12:51:54.863Z,2.13
2023-05-22T12:54:40.883Z,2.60
2023-05-22T12:57:27.033Z,2.20
2023-05-22T13:00:14.002Z,2.22
2023-05-22T13:03:00.599Z,2.28
2023-05-22T13:05:47.030Z,2.40
2023-05-22T13:08:32.746Z,2.08
2023-05-22T13:11:20.092Z,2.40
2023-05-22T13:14:06.067Z,2.15
2023-05-22T13:16:51.939Z,2.42
2023-05-22T13:19:38.236Z,2.40
2023-05-22T13:22:25.018Z,2.30
2023-05-22T13:25:11.493Z,2.17
2023-05-22T13:27:58.669Z,2.40
2023-05-22T13:30:44.918Z,2.83
2023-05-22T13:33:31.708Z,2.13
2023-05-22T13:36:18.060Z,2.80
2023-05-22T13:39:04.001Z,1.92
2023-05-22T13:41:52.113Z,2.42
2023-05-22T13:44:37.893Z,2.20
2023-05-22T13:47:23.906Z,2.20
2023-05-22T13:50:10.485Z,2.20
2023-05-22T13:52:56.662Z,2.40
2023-05-22T13:55:42.462Z,2.42
2023-05-22T13:58:28.331Z,3.85
2023-05-22T14:01:14.114Z,3.00
2023-05-22T14:04:00.153Z,2.88
2023-05-22T14:06:46.554Z,2.25
2023-05-22T14:09:32.378Z,2.20
2023-05-22T14:12:18.140Z,2.30
2023-05-22T14:15:03.596Z,2.85
2023-05-22T14:17:50.733Z,2.33
2023-05-22T14:20:36.534Z,2.63
2023-05-22T14:23:22.796Z,2.40
2023-05-22T14:26:09.410Z,2.20
2023-05-22T14:28:55.400Z,12.38
2023-05-22T14:31:51.272Z,3.20
2023-05-22T14:34:37.810Z,2.78
2023-05-22T14:37:24.470Z,2.40
2023-05-22T14:40:10.969Z,2.80
2023-05-22T14:42:56.891Z,2.20
2023-05-22T14:45:43.603Z,2.60
2023-05-22T14:48:29.431Z,2.42
2023-05-22T14:51:15.700Z,2.60
2023-05-22T14:54:01.652Z,2.10
2023-05-22T14:56:47.371Z,2.30
2023-05-22T14:59:33.873Z,2.40
2023-05-22T15:02:20.000Z,2.47
2023-05-22T15:05:07.278Z,1.88
2023-05-22T15:07:53.637Z,2.22
2023-05-22T15:10:39.184Z,2.15
2023-05-22T15:13:25.266Z,2.20
2023-05-22T15:16:10.989Z,2.17
2023-05-22T15:18:56.937Z,2.38
2023-05-22T15:21:42.894Z,2.17
2023-05-22T15:24:30.917Z,2.10
2023-05-22T15:27:17.436Z,2.05
2023-05-22T15:30:04.478Z,2.63
2023-05-22T15:32:52.456Z,2.58
2023-05-22T15:35:38.930Z,2.92
2023-05-22T15:38:24.840Z,2.42
2023-05-22T15:41:10.702Z,1.90
2023-05-22T15:43:56.689Z,1.90
2023-05-22T15:46:42.471Z,2.08
2023-05-22T15:49:30.932Z,2.10
2023-05-22T15:52:17.976Z,2.30
2023-05-22T15:55:04.329Z,2.28
2023-05-22T15:57:50.588Z,2.00
2023-05-22T16:00:38.755Z,2.60
2023-05-22T16:03:25.278Z,2.72
2023-05-22T16:06:11.429Z,2.30
2023-05-22T16:08:57.222Z,2.65
2023-05-22T16:11:42.831Z,2.67
2023-05-22T16:14:29.651Z,2.22
2023-05-22T16:17:15.626Z,2.50
2023-05-22T16:20:01.798Z,2.55
2023-05-22T16:22:49.197Z,2.38
2023-05-22T16:25:35.439Z,2.33
2023-05-22T16:28:21.402Z,2.30
2023-05-22T16:31:07.715Z,2.53
2023-05-22T16:33:53.693Z,2.40
2023-05-22T16:36:39.785Z,2.47
2023-05-22T16:39:26.653Z,2.40
2023-05-22T16:42:13.021Z,2.90
2023-05-22T16:44:58.902Z,4.40
2023-05-22T16:47:44.646Z,2.75
2023-05-22T16:50:30.793Z,2.42
2023-05-22T16:53:17.200Z,2.80
2023-05-22T16:56:04.834Z,2.63
2023-05-22T16:58:50.576Z,3.97
2023-05-22T17:01:36.160Z,4.13
2023-05-22T17:21:09.262Z,2.83
2023-05-22T17:23:55.263Z,3.72
2023-05-22T17:26:41.048Z,2.97
2023-05-22T17:29:28.186Z,3.00
2023-05-22T17:32:14.499Z,2.97
2023-05-22T17:35:02.016Z,2.97
2023-05-22T17:37:48.212Z,2.63
2023-05-22T17:40:43.746Z,3.13
2023-05-22T17:43:35.046Z,3.53
2023-05-22T17:46:21.537Z,3.53
2023-05-22T17:49:07.206Z,3.42
2023-05-22T17:51:53.024Z,3.40
2023-05-22T17:54:38.957Z,2.88
2023-05-22T17:57:25.980Z,3.25
2023-05-22T18:00:33.066Z,2.95
2023-05-22T18:03:22.842Z,2.72
2023-05-22T18:06:08.569Z,3.25
2023-05-22T18:08:55.231Z,2.65
2023-05-22T18:11:51.944Z,2.70
2023-05-22T18:14:58.368Z,3.20
2023-05-22T18:17:43.976Z,3.10
2023-05-22T18:20:29.814Z,2.78
2023-05-22T18:27:03.565Z,3.28
2023-05-22T18:29:50.515Z,3.67
2023-05-22T18:32:37.380Z,3.75
2023-05-22T18:35:23.475Z,3.47
2023-05-22T18:38:09.235Z,3.72
2023-05-22T18:40:56.520Z,4.25
2023-05-22T18:43:43.318Z,5.22
2023-05-22T18:46:29.280Z,3.45
2023-05-22T18:49:15.207Z,3.35
2023-05-22T18:52:00.714Z,3.42
2023-05-22T18:54:46.877Z,3.90
2023-05-22T18:57:32.902Z,3.97
2023-05-22T19:00:19.017Z,3.75
2023-05-22T19:03:06.130Z,3.58
2023-05-22T19:05:52.628Z,4.80
2023-05-22T19:08:38.620Z,5.63
2023-05-22T19:11:24.513Z,4.95
2023-05-22T19:14:09.965Z,4.60
2023-05-22T19:16:55.833Z,6.20
2023-05-22T19:19:41.867Z,6.47
2023-05-22T19:22:28.122Z,7.40
2023-05-22T19:25:13.706Z,6.03
2023-05-22T19:28:00.394Z,5.97
2023-05-22T19:30:46.445Z,6.60
2023-05-22T19:33:33.052Z,6.53
2023-05-22T19:36:18.935Z,5.68
2023-05-22T19:39:04.767Z,5.25
2023-05-22T19:41:52.504Z,5.00
2023-05-22T19:44:39.006Z,7.25
2023-05-22T19:47:24.971Z,6.30
2023-05-22T19:50:11.806Z,6.70
2023-05-22T19:52:58.679Z,6.45
2023-05-22T19:55:44.827Z,5.95
2023-05-22T19:58:31.024Z,5.90
2023-05-22T20:01:17.571Z,5.70
2023-05-22T20:04:03.813Z,6.40
2023-05-22T20:06:50.899Z,6.72
2023-05-22T20:09:36.790Z,7.22
2023-05-22T20:12:22.593Z,8.05
2023-05-22T20:15:10.466Z,7.95
2023-05-22T20:17:58.103Z,7.13
2023-05-22T20:20:43.620Z,6.60
2023-05-22T20:23:29.480Z,9.50
2023-05-22T20:26:15.670Z,11.07
2023-05-22T20:29:01.817Z,10.70
2023-05-22T20:31:48.286Z,10.75
2023-05-22T20:34:35.442Z,9.73
2023-05-22T20:37:23.905Z,8.38
2023-05-22T20:40:10.340Z,8.50
2023-05-22T20:42:57.083Z,9.15
2023-05-22T20:45:45.993Z,7.57
2023-05-22T20:48:32.017Z,7.40
2023-05-22T20:51:20.489Z,7.15
2023-05-22T20:54:06.260Z,7.65
2023-05-22T20:56:52.811Z,8.45
2023-05-22T20:59:38.615Z,30.13
2023-05-22T21:02:24.411Z,8.70
2023-05-22T21:05:10.427Z,8.80
2023-05-22T21:07:56.292Z,8.20
2023-05-22T21:10:41.894Z,7.47
2023-05-22T21:13:27.987Z,8.10
2023-05-22T21:16:13.461Z,8.60
2023-05-22T21:18:59.610Z,8.35
2023-05-22T21:21:45.923Z,8.13
2023-05-22T21:24:32.702Z,10.00
2023-05-22T21:27:18.480Z,9.13
2023-05-22T21:30:04.750Z,8.70
2023-05-22T21:32:50.407Z,8.65
2023-05-22T21:35:37.163Z,8.98
2023-05-22T21:38:22.963Z,9.05
2023-05-22T21:41:08.783Z,9.45
2023-05-22T21:43:54.421Z,8.95
2023-05-22T21:46:40.414Z,8.00
2023-05-22T21:49:26.511Z,7.78
2023-05-22T21:52:12.498Z,20.52
2023-05-22T21:54:58.058Z,7.82
2023-05-22T21:57:45.616Z,8.43
2023-05-22T22:00:31.560Z,8.13
2023-05-22T22:03:17.631Z,8.80
2023-05-22T22:06:04.106Z,7.55
2023-05-22T22:08:49.876Z,7.85
2023-05-22T22:11:35.760Z,7.43
2023-05-22T22:14:21.658Z,7.85
2023-05-22T22:17:07.814Z,7.90
2023-05-22T22:19:56.922Z,7.75
2023-05-22T22:22:42.960Z,8.73
2023-05-22T22:25:28.830Z,8.40
2023-05-22T22:28:15.013Z,9.18
2023-05-22T22:31:01.524Z,8.23
2023-05-22T22:33:47.141Z,10.50
2023-05-22T22:36:34.073Z,11.30
2023-05-22T22:39:19.851Z,10.27
2023-05-22T22:42:06.323Z,9.43
2023-05-22T22:44:52.250Z,8.65
2023-05-22T22:47:39.520Z,8.40
2023-05-22T22:50:24.992Z,8.80
2023-05-22T22:53:10.843Z,8.88
2023-05-22T22:55:59.407Z,9.57
2023-05-22T22:58:45.357Z,9.07
2023-05-22T23:01:31.571Z,10.30
2023-05-22T23:04:17.774Z,11.15
2023-05-22T23:07:04.248Z,9.98
2023-05-22T23:09:50.525Z,9.57
2023-05-22T23:12:36.272Z,9.40
2023-05-22T23:15:22.865Z,9.82
2023-05-22T23:18:08.566Z,8.07
2023-05-22T23:20:54.749Z,7.28
2023-05-22T23:23:40.308Z,7.80
2023-05-22T23:26:27.772Z,7.43
2023-05-22T23:29:13.443Z,7.53
2023-05-22T23:31:59.511Z,7.32
2023-05-22T23:34:45.368Z,7.03
2023-05-22T23:37:31.350Z,8.23
2023-05-22T23:40:16.800Z,8.20
2023-05-22T23:43:03.228Z,8.00
2023-05-22T23:45:48.598Z,7.18
2023-05-22T23:48:34.910Z,8.05
2023-05-22T23:51:20.292Z,9.13
2023-05-22T23:54:06.217Z,8.10
2023-05-22T23:56:51.621Z,8.68
2023-05-22T23:59:37.484Z,9.13
